Jackson, MS

6:54 AM CST en Enero 16, 2017 (GMT -0600)
Belhaven | | Change Station

Alt 318 ft 32.32 °N, 90.16 °W | Updated 11 seconds ago

Nublado
Nublado
64.0 ° F
Sensación térmica 64.0 ° F
N
0.0
Viento Variable Viento desde Norte
Gusts 0.0 mph

Hoy
Alta -- | Baja -- ° F
--% Posibilidad de precipitaciones
Ayer
Alta -- | Baja -- ° F
Precip. -- pul
Presión 30.12 pul
Visibilidad 10.0 Millas
Nubes Muy nublado 900 ft
Nublado 1300 ft
Punto de rocío 63 ° F
Humedad 95%
Precipitaciones 0.00 pul
Espesor de la nieve No disponible.
7:01 AM 5:19 PM
Gibosa menguante, 81% visible
SPECI KHKS 161224Z AUTO 15004KT 10SM BKN009 OVC013 17/16 A3012 RMK AO2 T01720161
Presión 30.12 pul
Visibilidad 10.0 Millas
Nubes Muy nublado 900 ft
Nublado 1300 ft
Punto de rocío 63 ° F
Humedad 95%
Precipitaciones 0.00 pul
Espesor de la nieve No disponible.
7:01 AM 5:19 PM
Gibosa menguante, 81% visible
SPECI KHKS 161224Z AUTO 15004KT 10SM BKN009 OVC013 17/16 A3012 RMK AO2 T01720161

Get Your Daily Forecast Email!

Thanks for signing up!

Be on the lookout for a verification email in your inbox.

You'll start receiving the daily forecast at 8 AM.

×

10-Day Weather Forecast

Almanac

Astronomía

Jan. 16, 2017 Salida Puesta
Hora real
Crepúsculo civil
Crepúsculo náutico
Crepúsculo astronómico
Luna
Horas de luz
Horas de luz
Tomorrow will be .
, % of the Moon is Illuminated

Extremos de hoy

Máximos del estado Bajos del estado

Community

WunderPhotos

Upload Photos

1,962,540 ¡fotos cargadas!

WunderBlog® & News

Nearby

Calidad del aire

  Calidad del aire Índice AQ Contaminante
Not available.

Grosos de nieve

Estación Profundido Altura

Actividad de terremotos

Ciudad Distance Mag. Tiempo y dato
Magnitud mínima muestra es 2,5.

Temperaturas de aguas costeras

Lugar Temperatura

Stations

Estaciones meteorológicas cercanas

Ubicación de la estación Temp. Vientos helados Punto de rocío Humedad Viento Precip. Alt Actualizado Tipo
                   

Watches & Warnings

There are currently no watches in effect.